Date,TemperatureHighF,TemperatureAvgF,TemperatureLowF,DewpointHighF,DewpointAvgF,DewpointLowF,HumidityHigh,HumidityAvg,HumidityLow,PressureMaxIn,PressureMinIn,WindSpeedMaxMPH,WindSpeedAvgMPH,GustSpeedMaxMPH,PrecipitationSumIn
2013-7-1,72.1,67.6,63.9,67.7,64.6,61.8,94,90,82,30.00,29.86,11,0,11,0.23
2013-7-2,72.2,63.7,60.6,68.7,61.6,58.6,95,93,88,30.07,29.98,8,0,8,0.45
2013-7-3,72.0,63.6,60.8,68.3,61.5,58.8,94,93,88,30.07,29.99,2,0,4,0.45
2013-7-9,83.3,75.8,69.0,71.0,68.1,65.5,94,78,62,30.02,29.93,16,2,16,0.00
2013-7-10,76.1,72.1,69.0,71.0,68.1,65.5,92,87,81,29.94,29.68,13,2,13,1.31
2013-7-11,76.9,69.7,57.0,69.8,63.6,54.2,93,82,54,29.96,29.68,11,2,16,0.27
2013-7-12,77.0,65.4,53.2,64.9,58.1,51.2,94,79,55,30.16,29.96,11,1,11,0.00
2013-7-13,76.2,67.5,57.1,67.3,61.3,54.8,94,81,63,30.25,30.16,13,1,13,0.00
2013-7-14,83.2,73.4,65.4,71.7,67.6,62.9,94,83,59,30.26,30.17,10,0,10,0.00
2013-7-15,87.2,74.9,63.5,71.8,65.9,61.4,95,76,48,30.18,30.08,12,1,12,0.00
2013-7-16,84.8,74.3,62.6,69.3,65.1,60.2,93,75,50,30.17,30.11,17,2,17,0.00
2013-7-17,88.0,77.0,63.7,74.7,68.5,61.0,93,76,57,30.15,29.92,13,1,13,0.00
2013-7-18,86.5,73.9,65.6,74.7,68.8,63.5,94,85,63,29.99,29.87,13,1,13,0.60
2013-7-19,88.0,76.8,68.5,76.1,70.3,66.3,94,81,61,29.88,29.61,17,2,17,0.29
2013-7-20,77.6,71.7,64.5,70.0,66.1,61.8,92,83,71,29.77,29.60,14,1,14,0.07
2013-7-21,74.3,65.6,58.2,62.0,59.0,55.3,93,81,56,29.97,29.76,12,1,12,0.00
2013-7-22,79.5,68.2,55.4,67.9,60.8,52.1,92,78,61,29.97,29.79,10,1,10,0.00
2013-7-23,75.3,68.2,63.7,67.5,64.4,61.1,93,88,72,29.79,29.50,9,0,9,1.48
2013-7-24,66.0,60.8,47.7,64.1,56.2,44.2,94,85,70,29.99,29.53,18,2,18,0.06
2013-7-25,68.8,55.8,40.0,57.1,48.9,37.8,93,79,61,30.10,29.99,10,1,10,0.01
2013-7-26,68.8,59.9,51.3,60.8,55.2,49.1,94,85,71,30.08,29.98,12,1,12,0.00
2013-7-27,77.3,64.2,48.5,63.8,55.6,46.5,94,76,49,30.02,29.92,10,1,10,0.00
2013-7-28,74.3,67.5,58.7,66.0,61.8,55.7,93,82,71,29.94,29.85,13,2,13,0.58
2013-7-29,76.3,68.7,59.4,64.6,60.5,53.9,93,77,49,30.02,29.89,12,1,12,0.02
2013-7-30,75.6,64.0,53.2,64.2,56.1,50.9,93,77,49,30.08,29.90,11,1,12,0.00
2013-7-31,75.6,64.3,51.8,61.5,55.9,49.8,93,76,48,30.10,29.98,9,1,11,0.00